sensor_id;sensor_type;location;lat;lon;timestamp;pressure;altitude;pressure_sealevel;temperature;humidity
75505;BME280;64085;54.974;73.410;2023-03-31T00:01:34;102254.97;;;-2.34;38.50
75505;BME280;64085;54.974;73.410;2023-03-31T00:04:01;102267.84;;;-2.29;37.76
75505;BME280;64085;54.974;73.410;2023-03-31T00:06:31;102234.16;;;-2.65;38.90
75505;BME280;64085;54.974;73.410;2023-03-31T00:09:04;102275.75;;;-2.28;38.28
75505;BME280;64085;54.974;73.410;2023-03-31T00:11:30;102282.00;;;-2.27;37.97
75505;BME280;64085;54.974;73.410;2023-03-31T00:13:55;102265.38;;;-2.31;37.78
75505;BME280;64085;54.974;73.410;2023-03-31T00:16:21;102277.63;;;-2.28;38.23
75505;BME280;64085;54.974;73.410;2023-03-31T00:18:47;102265.41;;;-2.37;38.36
75505;BME280;64085;54.974;73.410;2023-03-31T00:21:24;102268.13;;;-2.37;37.92
75505;BME280;64085;54.974;73.410;2023-03-31T00:26:19;102292.19;;;-2.22;37.56
75505;BME280;64085;54.974;73.410;2023-03-31T00:28:47;102284.72;;;-2.27;37.55
75505;BME280;64085;54.974;73.410;2023-03-31T00:31:13;102291.59;;;-2.24;37.34
75505;BME280;64085;54.974;73.410;2023-03-31T00:33:39;102203.66;;;-2.78;37.45
75505;BME280;64085;54.974;73.410;2023-03-31T00:36:06;102271.47;;;-2.35;37.69
75505;BME280;64085;54.974;73.410;2023-03-31T00:38:32;102290.53;;;-2.23;37.16
75505;BME280;64085;54.974;73.410;2023-03-31T00:40:59;102240.31;;;-2.51;37.28
75505;BME280;64085;54.974;73.410;2023-03-31T00:43:34;102305.13;;;-2.00;37.27
75505;BME280;64085;54.974;73.410;2023-03-31T00:46:26;102313.88;;;-1.54;36.66
75505;BME280;64085;54.974;73.410;2023-03-31T00:48:51;102297.38;;;-1.16;36.18
75505;BME280;64085;54.974;73.410;2023-03-31T00:51:21;102307.31;;;-0.32;35.65
75505;BME280;64085;54.974;73.410;2023-03-31T00:53:58;102241.19;;;0.62;34.14
75505;BME280;64085;54.974;73.410;2023-03-31T00:56:30;102312.16;;;2.53;31.99
75505;BME280;64085;54.974;73.410;2023-03-31T00:59:01;102320.19;;;3.79;30.07
75505;BME280;64085;54.974;73.410;2023-03-31T01:01:28;102322.09;;;5.00;28.54
75505;BME280;64085;54.974;73.410;2023-03-31T01:03:55;102329.78;;;6.07;26.29
75505;BME280;64085;54.974;73.410;2023-03-31T01:06:21;102331.03;;;6.91;25.46
75505;BME280;64085;54.974;73.410;2023-03-31T01:08:49;102314.22;;;7.52;24.45
75505;BME280;64085;54.974;73.410;2023-03-31T01:11:19;102336.69;;;8.42;23.07
75505;BME280;64085;54.974;73.410;2023-03-31T01:13:45;102324.81;;;8.95;22.45
75505;BME280;64085;54.974;73.410;2023-03-31T01:16:16;102346.31;;;9.97;22.04
75505;BME280;64085;54.974;73.410;2023-03-31T01:18:42;102314.63;;;10.41;20.03
75505;BME280;64085;54.974;73.410;2023-03-31T01:30:10;102353.13;;;12.95;15.77
75505;BME280;64085;54.974;73.410;2023-03-31T01:46:55;102369.03;;;11.83;16.70
75505;BME280;64085;54.974;73.410;2023-03-31T01:55:27;102375.06;;;11.35;17.89
75505;BME280;64085;54.974;73.410;2023-03-31T01:57:59;102373.75;;;11.82;17.24
75505;BME280;64085;54.974;73.410;2023-03-31T02:00:30;102379.91;;;11.66;16.63
75505;BME280;64085;54.974;73.410;2023-03-31T02:03:29;102385.25;;;12.34;15.85
75505;BME280;64085;54.974;73.410;2023-03-31T02:05:59;102373.78;;;12.27;16.07
75505;BME280;64085;54.974;73.410;2023-03-31T02:09:04;102388.94;;;12.21;15.64
75505;BME280;64085;54.974;73.410;2023-03-31T02:11:31;102382.88;;;13.04;15.48
75505;BME280;64085;54.974;73.410;2023-03-31T02:13:59;102389.88;;;13.01;14.90
75505;BME280;64085;54.974;73.410;2023-03-31T02:16:27;102383.78;;;13.21;15.87
75505;BME280;64085;54.974;73.410;2023-03-31T02:18:58;102362.91;;;13.41;14.19
75505;BME280;64085;54.974;73.410;2023-03-31T02:21:35;102391.16;;;13.26;15.09
75505;BME280;64085;54.974;73.410;2023-03-31T02:24:06;102409.50;;;13.05;15.00
75505;BME280;64085;54.974;73.410;2023-03-31T02:26:38;102347.03;;;13.24;14.32
75505;BME280;64085;54.974;73.410;2023-03-31T02:29:05;102405.75;;;13.49;14.53
75505;BME280;64085;54.974;73.410;2023-03-31T02:31:45;102409.28;;;14.15;13.77
75505;BME280;64085;54.974;73.410;2023-03-31T02:34:12;102418.56;;;15.56;12.97
75505;BME280;64085;54.974;73.410;2023-03-31T02:36:41;102413.88;;;18.36;11.55
75505;BME280;64085;54.974;73.410;2023-03-31T02:39:12;102415.97;;;19.77;10.45
75505;BME280;64085;54.974;73.410;2023-03-31T02:41:38;102416.38;;;20.53;10.07
75505;BME280;64085;54.974;73.410;2023-03-31T02:44:04;102419.72;;;21.50;9.33
75505;BME280;64085;54.974;73.410;2023-03-31T02:46:30;102427.56;;;22.88;8.48
75505;BME280;64085;54.974;73.410;2023-03-31T02:48:59;102434.59;;;23.08;8.61
75505;BME280;64085;54.974;73.410;2023-03-31T02:51:39;102420.91;;;23.07;8.04
75505;BME280;64085;54.974;73.410;2023-03-31T02:57:32;102437.22;;;24.77;7.96
75505;BME280;64085;54.974;73.410;2023-03-31T03:08:38;102455.06;;;25.88;7.26
75505;BME280;64085;54.974;73.410;2023-03-31T03:11:24;102444.94;;;26.85;5.93
75505;BME280;64085;54.974;73.410;2023-03-31T03:14:03;102451.59;;;26.53;6.53
75505;BME280;64085;54.974;73.410;2023-03-31T03:17:09;102461.63;;;27.31;5.73
75505;BME280;64085;54.974;73.410;2023-03-31T03:19:40;102441.47;;;27.63;5.85
75505;BME280;64085;54.974;73.410;2023-03-31T03:22:06;102469.34;;;27.31;5.58
75505;BME280;64085;54.974;73.410;2023-03-31T03:24:32;102465.81;;;28.40;5.41
75505;BME280;64085;54.974;73.410;2023-03-31T03:26:59;102469.56;;;28.64;5.20
75505;BME280;64085;54.974;73.410;2023-03-31T03:29:25;102474.91;;;29.15;4.95
75505;BME280;64085;54.974;73.410;2023-03-31T03:31:52;102463.09;;;29.17;4.92
75505;BME280;64085;54.974;73.410;2023-03-31T03:34:18;102485.06;;;30.50;4.33
75505;BME280;64085;54.974;73.410;2023-03-31T03:36:45;102486.81;;;30.64;3.99
75505;BME280;64085;54.974;73.410;2023-03-31T03:39:11;102483.44;;;32.15;3.55
75505;BME280;64085;54.974;73.410;2023-03-31T03:41:37;102487.72;;;33.42;3.23
75505;BME280;64085;54.974;73.410;2023-03-31T03:44:03;102478.75;;;34.75;2.47
75505;BME280;64085;54.974;73.410;2023-03-31T03:46:29;102482.28;;;34.48;2.13
75505;BME280;64085;54.974;73.410;2023-03-31T03:48:55;102491.28;;;34.15;2.13
75505;BME280;64085;54.974;73.410;2023-03-31T03:51:21;102496.78;;;36.47;1.85
75505;BME280;64085;54.974;73.410;2023-03-31T03:53:47;102486.22;;;35.03;1.91
75505;BME280;64085;54.974;73.410;2023-03-31T03:56:12;102492.09;;;36.68;1.83
75505;BME280;64085;54.974;73.410;2023-03-31T03:58:38;102489.78;;;36.02;1.27
75505;BME280;64085;54.974;73.410;2023-03-31T04:01:04;102493.78;;;35.19;1.88
75505;BME280;64085;54.974;73.410;2023-03-31T04:03:30;102494.91;;;36.17;1.38
75505;BME280;64085;54.974;73.410;2023-03-31T04:05:56;102490.44;;;37.18;1.62
75505;BME280;64085;54.974;73.410;2023-03-31T04:08:22;102502.09;;;37.24;1.36
75505;BME280;64085;54.974;73.410;2023-03-31T04:10:48;102499.81;;;38.00;0.94
75505;BME280;64085;54.974;73.410;2023-03-31T04:13:18;102504.22;;;37.14;1.59
75505;BME280;64085;54.974;73.410;2023-03-31T04:15:44;102469.94;;;36.83;1.10
75505;BME280;64085;54.974;73.410;2023-03-31T04:18:10;102505.75;;;38.50;1.18
75505;BME280;64085;54.974;73.410;2023-03-31T04:20:44;102507.00;;;39.43;0.61
75505;BME280;64085;54.974;73.410;2023-03-31T04:23:10;102516.84;;;39.92;0.10
75505;BME280;64085;54.974;73.410;2023-03-31T04:25:39;102515.47;;;38.76;0.50
75505;BME280;64085;54.974;73.410;2023-03-31T04:28:10;102505.06;;;38.25;0.93
75505;BME280;64085;54.974;73.410;2023-03-31T04:30:39;102510.19;;;36.59;0.75
75505;BME280;64085;54.974;73.410;2023-03-31T04:33:05;102513.47;;;37.28;1.28
75505;BME280;64085;54.974;73.410;2023-03-31T04:35:31;102513.81;;;36.78;0.72
75505;BME280;64085;54.974;73.410;2023-03-31T04:38:23;102511.22;;;37.23;1.27
75505;BME280;64085;54.974;73.410;2023-03-31T04:40:52;102509.84;;;38.58;0.58
75505;BME280;64085;54.974;73.410;2023-03-31T04:43:19;102512.06;;;37.95;0.45
75505;BME280;64085;54.974;73.410;2023-03-31T04:45:45;102519.19;;;36.52;0.99
75505;BME280;64085;54.974;73.410;2023-03-31T04:48:11;102503.34;;;36.99;1.25
75505;BME280;64085;54.974;73.410;2023-03-31T04:50:37;102501.78;;;36.89;0.69
75505;BME280;64085;54.974;73.410;2023-03-31T04:53:04;102503.50;;;37.29;1.10
75505;BME280;64085;54.974;73.410;2023-03-31T04:55:30;102504.28;;;37.38;1.07
75505;BME280;64085;54.974;73.410;2023-03-31T04:57:55;102494.72;;;36.90;1.01
75505;BME280;64085;54.974;73.410;2023-03-31T05:00:22;102499.31;;;35.44;1.06
75505;BME280;64085;54.974;73.410;2023-03-31T05:02:47;102499.50;;;36.23;1.32
75505;BME280;64085;54.974;73.410;2023-03-31T05:05:13;102499.00;;;36.61;0.87
75505;BME280;64085;54.974;73.410;2023-03-31T05:07:39;102453.22;;;36.97;0.76
75505;BME280;64085;54.974;73.410;2023-03-31T05:10:06;102501.81;;;34.18;1.35
75505;BME280;64085;54.974;73.410;2023-03-31T05:12:36;102492.22;;;33.77;1.65
75505;BME280;64085;54.974;73.410;2023-03-31T05:15:04;102490.63;;;33.76;2.04
75505;BME280;64085;54.974;73.410;2023-03-31T05:17:31;102497.03;;;33.08;1.86
75505;BME280;64085;54.974;73.410;2023-03-31T05:19:57;102498.72;;;31.96;2.47
75505;BME280;64085;54.974;73.410;2023-03-31T05:22:23;102493.81;;;32.93;2.27
75505;BME280;64085;54.974;73.410;2023-03-31T05:24:48;102502.41;;;32.09;2.51
75505;BME280;64085;54.974;73.410;2023-03-31T05:27:15;102500.50;;;34.10;1.58
75505;BME280;64085;54.974;73.410;2023-03-31T05:29:41;102498.34;;;35.47;1.39
75505;BME280;64085;54.974;73.410;2023-03-31T05:32:06;102491.47;;;37.30;0.83
75505;BME280;64085;54.974;73.410;2023-03-31T05:34:32;102481.78;;;35.11;1.37
75505;BME280;64085;54.974;73.410;2023-03-31T05:36:58;102496.09;;;36.61;1.38
75505;BME280;64085;54.974;73.410;2023-03-31T05:39:23;102495.09;;;33.90;1.83
75505;BME280;64085;54.974;73.410;2023-03-31T05:41:49;102486.94;;;31.61;1.96
75505;BME280;64085;54.974;73.410;2023-03-31T05:44:15;102463.84;;;31.40;2.43
75505;BME280;64085;54.974;73.410;2023-03-31T05:46:41;102502.47;;;34.22;1.33
75505;BME280;64085;54.974;73.410;2023-03-31T05:49:07;102493.16;;;36.89;1.06
75505;BME280;64085;54.974;73.410;2023-03-31T05:51:33;102495.94;;;37.40;0.33
75505;BME280;64085;54.974;73.410;2023-03-31T05:53:59;102459.38;;;34.97;1.50
75505;BME280;64085;54.974;73.410;2023-03-31T05:56:25;102502.59;;;36.11;0.91
75505;BME280;64085;54.974;73.410;2023-03-31T05:58:52;102492.66;;;34.76;1.41
75505;BME280;64085;54.974;73.410;2023-03-31T06:01:18;102486.59;;;36.00;0.97
75505;BME280;64085;54.974;73.410;2023-03-31T06:03:46;102499.63;;;36.56;1.16
75505;BME280;64085;54.974;73.410;2023-03-31T06:06:11;102490.22;;;33.87;1.21
75505;BME280;64085;54.974;73.410;2023-03-31T06:08:37;102506.19;;;33.28;1.51
75505;BME280;64085;54.974;73.410;2023-03-31T06:11:08;102495.19;;;34.74;1.29
75505;BME280;64085;54.974;73.410;2023-03-31T06:13:35;102497.97;;;33.04;1.96
75505;BME280;64085;54.974;73.410;2023-03-31T06:16:02;102497.34;;;34.61;1.20
75505;BME280;64085;54.974;73.410;2023-03-31T06:18:29;102507.38;;;35.28;1.18
75505;BME280;64085;54.974;73.410;2023-03-31T06:20:55;102491.94;;;34.94;1.28
75505;BME280;64085;54.974;73.410;2023-03-31T06:23:22;102499.56;;;31.80;2.17
75505;BME280;64085;54.974;73.410;2023-03-31T06:25:47;102493.34;;;31.17;2.78
75505;BME280;64085;54.974;73.410;2023-03-31T06:28:13;102486.69;;;31.56;2.51
75505;BME280;64085;54.974;73.410;2023-03-31T06:30:39;102452.31;;;30.18;2.87
75505;BME280;64085;54.974;73.410;2023-03-31T06:33:05;102487.78;;;30.93;2.65
75505;BME280;64085;54.974;73.410;2023-03-31T06:35:31;102493.53;;;29.47;3.16
75505;BME280;64085;54.974;73.410;2023-03-31T06:37:57;102484.09;;;26.27;3.74
75505;BME280;64085;54.974;73.410;2023-03-31T06:40:22;102493.31;;;21.52;6.20
75505;BME280;64085;54.974;73.410;2023-03-31T06:42:48;102474.66;;;17.83;8.56
75505;BME280;64085;54.974;73.410;2023-03-31T06:45:14;102490.28;;;15.76;9.45
75505;BME280;64085;54.974;73.410;2023-03-31T06:47:40;102480.47;;;15.32;10.40
75505;BME280;64085;54.974;73.410;2023-03-31T06:50:07;102485.31;;;15.06;10.32
75505;BME280;64085;54.974;73.410;2023-03-31T06:52:34;102483.56;;;14.41;10.49
75505;BME280;64085;54.974;73.410;2023-03-31T06:55:00;102476.88;;;14.50;10.60
75505;BME280;64085;54.974;73.410;2023-03-31T06:57:27;102484.53;;;14.19;10.27
75505;BME280;64085;54.974;73.410;2023-03-31T06:59:52;102476.22;;;13.62;11.30
75505;BME280;64085;54.974;73.410;2023-03-31T07:02:18;102449.72;;;13.47;11.53
75505;BME280;64085;54.974;73.410;2023-03-31T07:04:44;102484.19;;;13.37;11.98
75505;BME280;64085;54.974;73.410;2023-03-31T07:07:09;102478.88;;;12.74;12.91
75505;BME280;64085;54.974;73.410;2023-03-31T07:09:35;102486.28;;;12.78;12.73
75505;BME280;64085;54.974;73.410;2023-03-31T07:12:01;102474.25;;;12.24;12.62
75505;BME280;64085;54.974;73.410;2023-03-31T07:14:32;102471.75;;;11.59;13.23
75505;BME280;64085;54.974;73.410;2023-03-31T07:16:58;102482.53;;;11.74;13.14
75505;BME280;64085;54.974;73.410;2023-03-31T07:19:24;102482.50;;;11.06;14.08
75505;BME280;64085;54.974;73.410;2023-03-31T07:21:50;102479.63;;;11.24;13.82
75505;BME280;64085;54.974;73.410;2023-03-31T07:24:17;102486.63;;;11.22;13.75
75505;BME280;64085;54.974;73.410;2023-03-31T07:26:43;102453.31;;;10.81;14.17
75505;BME280;64085;54.974;73.410;2023-03-31T07:29:08;102486.00;;;11.11;13.78
75505;BME280;64085;54.974;73.410;2023-03-31T07:31:34;102481.31;;;10.93;14.19
75505;BME280;64085;54.974;73.410;2023-03-31T07:34:01;102481.41;;;10.55;14.55
75505;BME280;64085;54.974;73.410;2023-03-31T07:36:27;102480.06;;;10.34;14.51
75505;BME280;64085;54.974;73.410;2023-03-31T07:38:52;102479.81;;;10.35;14.18
75505;BME280;64085;54.974;73.410;2023-03-31T07:41:20;102482.66;;;9.87;15.25
75505;BME280;64085;54.974;73.410;2023-03-31T07:43:46;102489.44;;;9.76;14.93
75505;BME280;64085;54.974;73.410;2023-03-31T07:46:17;102481.59;;;9.83;14.77
75505;BME280;64085;54.974;73.410;2023-03-31T07:48:44;102489.00;;;9.40;15.43
75505;BME280;64085;54.974;73.410;2023-03-31T07:51:12;102486.59;;;9.57;15.44
75505;BME280;64085;54.974;73.410;2023-03-31T07:53:38;102485.22;;;9.60;14.90
75505;BME280;64085;54.974;73.410;2023-03-31T07:56:03;102486.63;;;9.34;14.55
75505;BME280;64085;54.974;73.410;2023-03-31T07:58:29;102489.28;;;9.44;16.14
75505;BME280;64085;54.974;73.410;2023-03-31T08:00:55;102487.03;;;8.93;15.86
75505;BME280;64085;54.974;73.410;2023-03-31T08:03:21;102474.34;;;9.21;15.58
75505;BME280;64085;54.974;73.410;2023-03-31T08:05:46;102489.28;;;9.15;16.17
75505;BME280;64085;54.974;73.410;2023-03-31T08:08:16;102484.34;;;8.83;16.20
75505;BME280;64085;54.974;73.410;2023-03-31T08:10:41;102474.59;;;8.66;15.54
75505;BME280;64085;54.974;73.410;2023-03-31T08:13:07;102486.47;;;8.91;15.04
75505;BME280;64085;54.974;73.410;2023-03-31T08:15:33;102477.09;;;9.21;14.77
75505;BME280;64085;54.974;73.410;2023-03-31T08:17:58;102472.91;;;9.23;15.38
75505;BME280;64085;54.974;73.410;2023-03-31T08:20:24;102469.31;;;8.99;15.78
75505;BME280;64085;54.974;73.410;2023-03-31T08:22:50;102466.47;;;9.09;15.53
75505;BME280;64085;54.974;73.410;2023-03-31T08:25:16;102470.53;;;9.17;15.11
75505;BME280;64085;54.974;73.410;2023-03-31T08:27:42;102429.56;;;8.42;16.72
75505;BME280;64085;54.974;73.410;2023-03-31T08:30:10;102473.22;;;8.19;17.09
75505;BME280;64085;54.974;73.410;2023-03-31T08:32:36;102456.78;;;8.49;16.02
75505;BME280;64085;54.974;73.410;2023-03-31T08:35:02;102472.16;;;8.60;16.78
75505;BME280;64085;54.974;73.410;2023-03-31T08:37:28;102469.31;;;8.70;17.11
75505;BME280;64085;54.974;73.410;2023-03-31T08:39:54;102425.75;;;8.96;15.82
75505;BME280;64085;54.974;73.410;2023-03-31T08:47:35;102469.22;;;9.33;16.41
75505;BME280;64085;54.974;73.410;2023-03-31T08:50:07;102471.63;;;9.40;15.77
75505;BME280;64085;54.974;73.410;2023-03-31T08:52:58;102467.53;;;9.61;16.25
75505;BME280;64085;54.974;73.410;2023-03-31T08:55:35;102466.22;;;9.77;15.69
75505;BME280;64085;54.974;73.410;2023-03-31T09:01:35;102459.28;;;8.79;16.49
75505;BME280;64085;54.974;73.410;2023-03-31T09:06:30;102431.50;;;8.41;16.84
75505;BME280;64085;54.974;73.410;2023-03-31T09:09:01;102437.53;;;7.50;18.36
75505;BME280;64085;54.974;73.410;2023-03-31T09:11:49;102458.63;;;7.75;17.84
75505;BME280;64085;54.974;73.410;2023-03-31T09:17:43;102410.88;;;7.40;18.06
75505;BME280;64085;54.974;73.410;2023-03-31T09:22:49;102430.38;;;7.98;17.62
75505;BME280;64085;54.974;73.410;2023-03-31T09:25:30;102454.53;;;8.16;17.73
75505;BME280;64085;54.974;73.410;2023-03-31T09:27:58;102440.03;;;8.01;17.70
75505;BME280;64085;54.974;73.410;2023-03-31T09:30:30;102461.63;;;8.67;17.03
75505;BME280;64085;54.974;73.410;2023-03-31T09:33:18;102454.06;;;7.45;18.22
75505;BME280;64085;54.974;73.410;2023-03-31T09:35:45;102451.06;;;7.41;18.27
75505;BME280;64085;54.974;73.410;2023-03-31T09:38:13;102459.22;;;7.61;18.15
75505;BME280;64085;54.974;73.410;2023-03-31T09:40:38;102450.72;;;7.53;17.89
75505;BME280;64085;54.974;73.410;2023-03-31T09:43:07;102452.75;;;8.36;17.68
75505;BME280;64085;54.974;73.410;2023-03-31T09:45:34;102459.94;;;6.97;18.67
75505;BME280;64085;54.974;73.410;2023-03-31T09:48:03;102459.91;;;7.13;18.95
75505;BME280;64085;54.974;73.410;2023-03-31T09:50:35;102451.44;;;6.89;19.18
75505;BME280;64085;54.974;73.410;2023-03-31T09:53:06;102453.75;;;7.51;18.63
75505;BME280;64085;54.974;73.410;2023-03-31T09:55:44;102453.94;;;8.19;18.03
75505;BME280;64085;54.974;73.410;2023-03-31T09:58:15;102467.28;;;8.81;16.75
75505;BME280;64085;54.974;73.410;2023-03-31T10:00:43;102434.78;;;8.78;16.99
75505;BME280;64085;54.974;73.410;2023-03-31T10:03:20;102460.84;;;8.90;16.93
75505;BME280;64085;54.974;73.410;2023-03-31T10:05:50;102464.16;;;9.16;16.50
75505;BME280;64085;54.974;73.410;2023-03-31T10:08:26;102459.38;;;8.69;18.18
75505;BME280;64085;54.974;73.410;2023-03-31T10:13:44;102461.59;;;8.28;19.67
75505;BME280;64085;54.974;73.410;2023-03-31T10:18:46;102411.69;;;7.90;19.84
75505;BME280;64085;54.974;73.410;2023-03-31T10:21:25;102445.31;;;7.87;21.09
75505;BME280;64085;54.974;73.410;2023-03-31T10:23:52;102447.69;;;8.09;20.21
75505;BME280;64085;54.974;73.410;2023-03-31T10:26:26;102445.59;;;8.35;19.99
75505;BME280;64085;54.974;73.410;2023-03-31T10:28:52;102455.94;;;7.59;20.70
75505;BME280;64085;54.974;73.410;2023-03-31T10:31:24;102451.25;;;7.65;21.12
75505;BME280;64085;54.974;73.410;2023-03-31T10:33:50;102448.50;;;7.55;21.38
75505;BME280;64085;54.974;73.410;2023-03-31T10:36:23;102455.41;;;7.47;21.67
75505;BME280;64085;54.974;73.410;2023-03-31T10:38:51;102442.47;;;7.58;21.17
75505;BME280;64085;54.974;73.410;2023-03-31T10:41:20;102449.72;;;7.88;20.84
75505;BME280;64085;54.974;73.410;2023-03-31T10:43:49;102445.56;;;7.31;21.65
75505;BME280;64085;54.974;73.410;2023-03-31T10:46:16;102437.78;;;7.58;21.00
75505;BME280;64085;54.974;73.410;2023-03-31T10:48:42;102441.66;;;8.46;19.97
75505;BME280;64085;54.974;73.410;2023-03-31T10:51:20;102447.16;;;8.46;19.91
75505;BME280;64085;54.974;73.410;2023-03-31T10:53:54;102444.78;;;8.29;20.82
75505;BME280;64085;54.974;73.410;2023-03-31T11:14:14;102443.91;;;7.95;22.06
75505;BME280;64085;54.974;73.410;2023-03-31T11:17:22;102453.31;;;7.14;22.75
75505;BME280;64085;54.974;73.410;2023-03-31T11:20:01;102447.59;;;6.39;24.08
75505;BME280;64085;54.974;73.410;2023-03-31T11:22:36;102456.44;;;6.56;23.57
75505;BME280;64085;54.974;73.410;2023-03-31T11:31:05;102456.28;;;7.38;22.62
75505;BME280;64085;54.974;73.410;2023-03-31T11:34:03;102451.84;;;7.47;22.10
75505;BME280;64085;54.974;73.410;2023-03-31T11:36:41;102450.34;;;7.00;22.77
75505;BME280;64085;54.974;73.410;2023-03-31T11:41:58;102449.19;;;6.04;24.26
75505;BME280;64085;54.974;73.410;2023-03-31T11:44:29;102441.44;;;5.76;24.87
75505;BME280;64085;54.974;73.410;2023-03-31T11:47:01;102439.38;;;6.34;24.01
75505;BME280;64085;54.974;73.410;2023-03-31T11:49:30;102439.91;;;6.61;23.88
75505;BME280;64085;54.974;73.410;2023-03-31T11:54:52;102435.78;;;6.08;24.61
75505;BME280;64085;54.974;73.410;2023-03-31T11:59:57;102454.16;;;6.12;24.77
75505;BME280;64085;54.974;73.410;2023-03-31T12:02:38;102429.75;;;6.52;23.76
75505;BME280;64085;54.974;73.410;2023-03-31T12:05:07;102452.28;;;6.59;23.71
75505;BME280;64085;54.974;73.410;2023-03-31T12:07:40;102384.97;;;6.36;23.67
75505;BME280;64085;54.974;73.410;2023-03-31T12:10:19;102448.16;;;6.51;23.53
75505;BME280;64085;54.974;73.410;2023-03-31T12:12:57;102443.25;;;5.55;25.06
75505;BME280;64085;54.974;73.410;2023-03-31T12:15:34;102438.19;;;5.89;24.21
75505;BME280;64085;54.974;73.410;2023-03-31T12:20:40;102377.00;;;5.93;23.46
75505;BME280;64085;54.974;73.410;2023-03-31T12:23:14;102436.34;;;6.45;23.80
75505;BME280;64085;54.974;73.410;2023-03-31T12:26:03;102434.72;;;6.49;23.49
75505;BME280;64085;54.974;73.410;2023-03-31T12:28:33;102437.75;;;6.48;23.78
75505;BME280;64085;54.974;73.410;2023-03-31T12:31:04;102434.81;;;5.67;25.04
75505;BME280;64085;54.974;73.410;2023-03-31T12:33:35;102433.00;;;5.92;24.91
75505;BME280;64085;54.974;73.410;2023-03-31T12:39:50;102438.94;;;5.64;25.13
75505;BME280;64085;54.974;73.410;2023-03-31T12:55:45;102443.28;;;5.02;26.18
75505;BME280;64085;54.974;73.410;2023-03-31T13:06:04;102421.38;;;4.65;27.11
75505;BME280;64085;54.974;73.410;2023-03-31T13:08:56;102428.41;;;4.93;26.35
75505;BME280;64085;54.974;73.410;2023-03-31T13:16:32;102444.25;;;4.81;26.88
75505;BME280;64085;54.974;73.410;2023-03-31T13:18:59;102442.69;;;4.58;26.75
75505;BME280;64085;54.974;73.410;2023-03-31T13:21:25;102448.66;;;4.87;26.31
75505;BME280;64085;54.974;73.410;2023-03-31T13:23:52;102441.19;;;4.40;27.06
75505;BME280;64085;54.974;73.410;2023-03-31T13:26:36;102444.66;;;4.31;27.54
75505;BME280;64085;54.974;73.410;2023-03-31T13:34:42;102446.06;;;4.06;27.96
75505;BME280;64085;54.974;73.410;2023-03-31T13:49:02;102442.94;;;3.71;28.51
75505;BME280;64085;54.974;73.410;2023-03-31T13:52:01;102441.03;;;3.71;28.63
75505;BME280;64085;54.974;73.410;2023-03-31T13:57:49;102443.50;;;3.73;28.18
75505;BME280;64085;54.974;73.410;2023-03-31T14:00:51;102446.88;;;3.58;28.74
75505;BME280;64085;54.974;73.410;2023-03-31T14:06:01;102438.94;;;3.56;28.44
75505;BME280;64085;54.974;73.410;2023-03-31T14:08:49;102444.97;;;3.58;28.29
75505;BME280;64085;54.974;73.410;2023-03-31T14:11:16;102443.91;;;3.37;29.29
75505;BME280;64085;54.974;73.410;2023-03-31T14:13:42;102440.13;;;3.44;29.17
75505;BME280;64085;54.974;73.410;2023-03-31T14:16:08;102400.41;;;3.14;28.90
75505;BME280;64085;54.974;73.410;2023-03-31T14:18:37;102445.00;;;3.36;29.17
75505;BME280;64085;54.974;73.410;2023-03-31T14:24:09;102449.69;;;3.41;29.20
75505;BME280;64085;54.974;73.410;2023-03-31T14:26:46;102448.28;;;3.38;29.11
75505;BME280;64085;54.974;73.410;2023-03-31T14:32:01;102451.38;;;3.25;29.40
75505;BME280;64085;54.974;73.410;2023-03-31T14:34:55;102446.91;;;3.19;29.04
75505;BME280;64085;54.974;73.410;2023-03-31T14:37:26;102453.41;;;3.13;29.50
75505;BME280;64085;54.974;73.410;2023-03-31T14:39:54;102448.25;;;3.17;29.07
75505;BME280;64085;54.974;73.410;2023-03-31T14:42:34;102437.66;;;3.20;29.08
75505;BME280;64085;54.974;73.410;2023-03-31T14:45:04;102380.28;;;2.81;28.53
75505;BME280;64085;54.974;73.410;2023-03-31T14:47:34;102448.25;;;3.17;28.61
75505;BME280;64085;54.974;73.410;2023-03-31T14:50:05;102446.59;;;3.16;28.90
75505;BME280;64085;54.974;73.410;2023-03-31T14:52:33;102445.00;;;2.98;29.43
75505;BME280;64085;54.974;73.410;2023-03-31T14:55:00;102448.78;;;3.14;29.24
75505;BME280;64085;54.974;73.410;2023-03-31T14:57:37;102443.91;;;2.99;29.10
75505;BME280;64085;54.974;73.410;2023-03-31T15:00:10;102451.56;;;2.80;28.96
75505;BME280;64085;54.974;73.410;2023-03-31T15:02:43;102363.88;;;2.26;29.24
75505;BME280;64085;54.974;73.410;2023-03-31T15:05:38;102449.41;;;2.65;29.54
75505;BME280;64085;54.974;73.410;2023-03-31T15:10:42;102443.22;;;2.70;29.44
75505;BME280;64085;54.974;73.410;2023-03-31T15:13:26;102413.41;;;2.68;28.88
75505;BME280;64085;54.974;73.410;2023-03-31T15:15:55;102444.66;;;2.94;29.22
75505;BME280;64085;54.974;73.410;2023-03-31T15:18:20;102454.28;;;2.63;30.29
75505;BME280;64085;54.974;73.410;2023-03-31T15:20:46;102440.25;;;2.09;31.86
75505;BME280;64085;54.974;73.410;2023-03-31T15:25:52;102447.63;;;1.80;31.75
75505;BME280;64085;54.974;73.410;2023-03-31T15:28:20;102442.81;;;1.99;31.58
75505;BME280;64085;54.974;73.410;2023-03-31T15:30:48;102445.22;;;1.95;31.71
75505;BME280;64085;54.974;73.410;2023-03-31T15:33:27;102427.56;;;1.86;31.64
75505;BME280;64085;54.974;73.410;2023-03-31T15:35:56;102445.50;;;2.11;31.17
75505;BME280;64085;54.974;73.410;2023-03-31T15:38:24;102452.28;;;2.25;30.95
75505;BME280;64085;54.974;73.410;2023-03-31T15:40:55;102452.00;;;2.10;31.55
75505;BME280;64085;54.974;73.410;2023-03-31T15:43:41;102405.41;;;1.54;32.55
75505;BME280;64085;54.974;73.410;2023-03-31T15:47:05;102454.59;;;1.88;33.26
75505;BME280;64085;54.974;73.410;2023-03-31T15:49:21;102425.44;;;1.60;32.61